Time;durP1;ratioP1;P1;durP2;ratioP2;P2;SDS_P1;SDS_P2;PMS_P1;PMS_P2;Temp;Humidity;BMP_temperature;BMP_pressure;BME280_temperature;BME280_humidity;BME280_pressure;Samples;Min_cycle;Max_cycle;Signal;HPM_P1;HPM_P2
2021/12/17 00:04:54;;;;;;;10.57;5.10;;;7.50;99.90;;;;;;5043585;28;20217;-63
2021/12/17 00:07:22;;;;;;;10.27;5.03;;;7.50;99.90;;;;;;5043986;28;20199;-63
2021/12/17 00:09:50;;;;;;;11.90;6.23;;;7.50;99.90;;;;;;5040360;28;20199;-63
2021/12/17 00:12:22;;;;;;;12.20;6.20;;;7.50;99.90;;;;;;5043842;28;20187;-63
2021/12/17 00:14:51;;;;;;;12.83;5.77;;;7.50;99.90;;;;;;5041151;28;20230;-64
2021/12/17 00:17:25;;;;;;;11.47;5.80;;;7.50;99.90;;;;;;5043792;28;20195;-65
2021/12/17 00:20:14;;;;;;;10.00;5.07;;;7.50;99.90;;;;;;5041801;28;20200;-64
2021/12/17 00:50:20;;;;;;;12.37;5.47;;;7.40;99.90;;;;;;5086278;28;20181;-64
2021/12/17 00:52:47;;;;;;;10.47;5.63;;;7.50;99.90;;;;;;5085273;28;20205;-63
2021/12/17 00:55:15;;;;;;;12.13;5.87;;;7.50;99.90;;;;;;5085273;28;20201;-63
2021/12/17 00:57:44;;;;;;;10.63;4.97;;;7.40;99.90;;;;;;5085514;28;20209;-63
2021/12/17 01:00:16;;;;;;;11.23;5.33;;;7.40;99.90;;;;;;5086021;28;20201;-64
2021/12/17 01:02:44;;;;;;;10.27;5.43;;;7.40;99.90;;;;;;5085413;28;20256;-63
2021/12/17 01:05:14;;;;;;;8.70;5.70;;;7.40;99.90;;;;;;5086037;28;20242;-64
2021/12/17 01:07:43;;;;;;;10.27;5.57;;;7.50;99.90;;;;;;5085249;28;20228;-63
2021/12/17 01:10:16;;;;;;;12.97;6.27;;;7.40;99.90;;;;;;5085455;28;20205;-63
2021/12/17 01:12:43;;;;;;;9.50;5.30;;;7.50;99.90;;;;;;5085573;28;20211;-64
2021/12/17 01:15:14;;;;;;;10.63;5.57;;;7.50;99.90;;;;;;5085941;28;20260;-64
2021/12/17 01:17:43;;;;;;;11.30;5.47;;;7.40;99.90;;;;;;5085194;28;20213;-63
2021/12/17 01:23:09;;;;;;;8.07;4.63;;;7.40;99.90;;;;;;5081708;28;20201;-63
2021/12/17 01:25:48;;;;;;;4.97;2.40;;;7.50;99.90;;;;;;5084406;28;20248;-64
2021/12/17 01:36:32;;;;;;;5.80;3.03;;;7.40;99.90;;;;;;5085381;28;20208;-63
2021/12/17 01:40:02;;;;;;;7.60;3.50;;;7.40;99.90;;;;;;5084672;28;20239;-64
2021/12/17 01:42:06;;;;;;;4.80;2.43;;;7.40;99.90;;;;;;5085092;28;20197;-64
2021/12/17 01:44:33;;;;;;;6.60;3.27;;;7.40;99.90;;;;;;5084691;28;20248;-63
2021/12/17 01:47:02;;;;;;;6.43;3.20;;;7.40;99.90;;;;;;5085131;28;20241;-64
2021/12/17 02:00:41;;;;;;;7.07;3.50;;;7.50;99.90;;;;;;5084789;28;20247;-63
2021/12/17 02:03:11;;;;;;;5.93;4.13;;;7.40;99.90;;;;;;5084808;28;20209;-63
2021/12/17 02:05:38;;;;;;;6.67;3.87;;;7.40;99.90;;;;;;5085391;28;20213;-64
2021/12/17 02:08:06;;;;;;;5.83;3.57;;;7.40;99.90;;;;;;5084082;28;20687;-64
2021/12/17 02:11:19;;;;;;;5.77;3.20;;;7.40;99.90;;;;;;5084454;28;20235;-63
2021/12/17 02:19:41;;;;;;;8.77;3.67;;;7.30;99.90;;;;;;5072979;28;20276;-63
2021/12/17 02:31:04;;;;;;;7.33;3.50;;;7.40;99.90;;;;;;5104419;28;20196;-63
2021/12/17 02:33:31;;;;;;;8.07;3.90;;;7.40;99.90;;;;;;5114597;28;20200;-64
2021/12/17 02:36:00;;;;;;;8.73;4.10;;;7.40;99.90;;;;;;5125538;28;20191;-64
2021/12/17 02:38:30;;;;;;;5.37;3.63;;;7.40;99.90;;;;;;5124459;28;20211;-64
2021/12/17 02:46:42;;;;;;;5.97;3.77;;;7.40;99.90;;;;;;5062112;28;20212;-63
2021/12/17 02:49:10;;;;;;;9.17;5.00;;;7.30;99.90;;;;;;5062080;28;20627;-64
2021/12/17 02:51:38;;;;;;;6.77;4.10;;;7.30;99.90;;;;;;5062064;28;20213;-64
2021/12/17 02:54:06;;;;;;;7.57;4.37;;;7.30;99.90;;;;;;5060815;28;20225;-64
2021/12/17 02:56:33;;;;;;;8.53;3.83;;;7.30;99.90;;;;;;5061406;28;20206;-63
2021/12/17 02:59:02;;;;;;;8.20;4.43;;;7.30;99.90;;;;;;5061866;28;20217;-64
2021/12/17 03:01:29;;;;;;;10.00;3.77;;;7.30;99.90;;;;;;5061983;28;20237;-64
2021/12/17 03:03:57;;;;;;;6.20;3.60;;;7.20;99.90;;;;;;5061763;28;20404;-64
2021/12/17 03:06:24;;;;;;;6.40;3.73;;;7.20;99.90;;;;;;5061958;28;20221;-63
2021/12/17 03:08:51;;;;;;;8.57;4.40;;;7.20;99.90;;;;;;5061688;28;20623;-63
2021/12/17 03:11:20;;;;;;;6.97;3.10;;;7.20;99.90;;;;;;5065155;28;20206;-64
2021/12/17 03:13:48;;;;;;;7.47;3.90;;;7.20;99.90;;;;;;5065400;28;20225;-64
2021/12/17 03:16:26;;;;;;;5.53;3.30;;;7.20;99.90;;;;;;5065734;28;20265;-64
2021/12/17 03:19:02;;;;;;;6.87;3.90;;;7.20;99.90;;;;;;5128446;28;20865;-63
2021/12/17 03:24:18;;;;;;;4.13;3.03;;;7.20;99.90;;;;;;5126966;28;20252;-63
2021/12/17 03:26:47;;;;;;;4.93;2.80;;;7.20;99.90;;;;;;5127895;28;20233;-63
2021/12/17 03:29:14;;;;;;;4.67;2.93;;;7.20;99.90;;;;;;5128367;28;20219;-63
2021/12/17 03:31:41;;;;;;;5.40;2.83;;;7.20;99.90;;;;;;5128538;28;20206;-64
2021/12/17 03:36:57;;;;;;;5.43;2.87;;;7.20;99.90;;;;;;5128071;28;20191;-63
2021/12/17 03:39:26;;;;;;;5.73;3.30;;;7.20;99.90;;;;;;5127606;28;20207;-64
2021/12/17 03:41:55;;;;;;;5.43;3.53;;;7.20;99.90;;;;;;5127871;28;20224;-63
2021/12/17 03:44:22;;;;;;;8.00;3.17;;;7.20;99.90;;;;;;5127681;28;20261;-64
2021/12/17 03:46:51;;;;;;;5.37;3.20;;;7.20;99.90;;;;;;5128272;28;20234;-64
2021/12/17 03:49:19;;;;;;;8.43;3.93;;;7.20;99.90;;;;;;5127908;28;20210;-63
2021/12/17 03:51:52;;;;;;;5.23;3.10;;;7.20;99.90;;;;;;5128005;28;20219;-63
2021/12/17 03:54:19;;;;;;;3.80;2.57;;;7.20;99.90;;;;;;5126449;28;20263;-63
2021/12/17 03:56:46;;;;;;;5.80;2.97;;;7.20;99.90;;;;;;5127485;28;20210;-63
2021/12/17 03:59:14;;;;;;;5.20;2.77;;;7.20;99.90;;;;;;5127895;28;20207;-64
2021/12/17 04:01:42;;;;;;;9.73;3.87;;;7.20;99.90;;;;;;5127725;28;20273;-64
2021/12/17 04:04:09;;;;;;;8.37;3.20;;;7.20;99.90;;;;;;5127467;28;20614;-64
2021/12/17 04:06:36;;;;;;;4.57;3.03;;;7.20;99.90;;;;;;5127616;28;20304;-63
2021/12/17 04:09:04;;;;;;;4.40;2.90;;;7.10;99.90;;;;;;5126778;28;20200;-63
2021/12/17 04:11:31;;;;;;;4.83;2.80;;;7.10;99.90;;;;;;5127243;28;20297;-63
2021/12/17 04:13:59;;;;;;;6.73;3.43;;;7.10;99.90;;;;;;5127304;28;20237;-65
2021/12/17 04:16:30;;;;;;;4.87;3.10;;;7.10;99.90;;;;;;5127346;28;20378;-63
2021/12/17 04:18:58;;;;;;;4.47;2.47;;;7.10;99.90;;;;;;5127446;28;20256;-64
2021/12/17 04:21:26;;;;;;;4.50;2.50;;;7.10;99.90;;;;;;5127664;28;20271;-65
2021/12/17 04:23:54;;;;;;;3.23;2.30;;;7.10;99.90;;;;;;5126091;28;20199;-63
2021/12/17 04:26:22;;;;;;;5.97;3.27;;;7.00;99.90;;;;;;5126612;28;20311;-63
2021/12/17 04:28:51;;;;;;;3.90;3.33;;;7.00;99.90;;;;;;5126954;28;20215;-64
2021/12/17 04:31:20;;;;;;;4.37;3.00;;;7.00;99.90;;;;;;5127147;28;20268;-64
2021/12/17 04:33:49;;;;;;;4.23;2.73;;;7.00;99.90;;;;;;5127042;28;20294;-64
2021/12/17 04:36:22;;;;;;;5.03;3.27;;;7.00;99.90;;;;;;5127229;28;20230;-63
2021/12/17 04:38:50;;;;;;;4.60;2.63;;;7.10;99.90;;;;;;5126178;28;20207;-64
2021/12/17 04:41:41;;;;;;;6.33;3.73;;;7.00;99.90;;;;;;5126582;28;20207;-63
2021/12/17 04:44:13;;;;;;;7.00;2.97;;;7.00;99.90;;;;;;5126989;28;20200;-64
2021/12/17 04:46:45;;;;;;;3.93;2.83;;;7.00;99.90;;;;;;5126831;28;20299;-63
2021/12/17 04:57:30;;;;;;;5.97;3.30;;;6.90;99.90;;;;;;5126550;28;20599;-63
2021/12/17 05:00:00;;;;;;;5.30;3.47;;;6.90;99.90;;;;;;5126901;28;20256;-63
2021/12/17 05:02:28;;;;;;;5.63;3.77;;;6.90;99.90;;;;;;5126201;28;20241;-63
2021/12/17 05:04:56;;;;;;;5.10;2.63;;;6.90;99.90;;;;;;5126387;28;20228;-64
2021/12/17 05:07:25;;;;;;;6.27;3.03;;;6.90;99.90;;;;;;5126251;28;20227;-65
2021/12/17 05:10:00;;;;;;;3.57;2.37;;;7.00;99.90;;;;;;5125488;28;20196;-63
2021/12/17 05:20:47;;;;;;;4.53;2.90;;;7.00;99.90;;;;;;5126392;28;20236;-64
2021/12/17 05:23:14;;;;;;;5.20;2.93;;;7.00;99.90;;;;;;5125027;28;21329;-64
2021/12/17 05:25:41;;;;;;;3.63;2.57;;;7.00;99.90;;;;;;5111296;28;20219;-63
2021/12/17 05:28:07;;;;;;;5.37;3.10;;;7.00;99.90;;;;;;5114028;28;20684;-63
2021/12/17 05:30:36;;;;;;;6.23;3.13;;;7.00;99.90;;;;;;5107544;28;20250;-64
2021/12/17 05:33:03;;;;;;;6.83;3.00;;;7.00;99.90;;;;;;5103476;28;20206;-63
2021/12/17 05:35:30;;;;;;;5.07;3.03;;;7.00;99.90;;;;;;5101692;28;20698;-63
2021/12/17 05:37:58;;;;;;;7.80;3.63;;;7.00;99.90;;;;;;5103598;28;20228;-63
2021/12/17 05:40:26;;;;;;;5.10;2.97;;;7.00;99.90;;;;;;5100571;28;20197;-62
2021/12/17 05:42:55;;;;;;;5.43;2.93;;;7.00;99.90;;;;;;5104010;28;20197;-63
2021/12/17 05:45:33;;;;;;;2.87;2.30;;;7.00;99.90;;;;;;5104900;28;20308;-64
2021/12/17 05:48:00;;;;;;;3.30;2.70;;;7.00;99.90;;;;;;5104977;28;20222;-64
2021/12/17 05:50:28;;;;;;;4.83;2.97;;;7.00;99.90;;;;;;5105419;28;20200;-64
2021/12/17 05:52:55;;;;;;;5.37;2.83;;;7.00;99.90;;;;;;5104252;28;20201;-64
2021/12/17 05:55:23;;;;;;;6.70;3.33;;;7.00;99.90;;;;;;5104278;28;20223;-63
2021/12/17 05:57:52;;;;;;;4.27;2.90;;;6.90;99.90;;;;;;5105175;28;20208;-65
2021/12/17 06:00:19;;;;;;;4.83;3.00;;;6.90;99.90;;;;;;5105226;28;20196;-64
2021/12/17 06:02:48;;;;;;;4.43;2.63;;;6.90;99.90;;;;;;5105222;28;20263;-62
2021/12/17 06:05:15;;;;;;;4.03;2.70;;;6.90;99.90;;;;;;5101175;28;20220;-68
2021/12/17 06:07:42;;;;;;;4.67;3.00;;;6.90;99.90;;;;;;5103157;28;20205;-62
2021/12/17 06:10:10;;;;;;;4.33;2.93;;;6.90;99.90;;;;;;5102136;28;20208;-63
2021/12/17 06:12:39;;;;;;;5.83;2.83;;;6.90;99.90;;;;;;5101433;28;20189;-62
2021/12/17 06:15:09;;;;;;;4.77;3.17;;;7.00;99.90;;;;;;5103868;28;20223;-63
2021/12/17 06:17:36;;;;;;;4.20;2.33;;;6.90;99.90;;;;;;5101759;28;20204;-63
2021/12/17 06:20:03;;;;;;;5.50;2.40;;;6.90;99.90;;;;;;5103674;28;20197;-63
2021/12/17 06:22:30;;;;;;;4.83;3.03;;;7.00;99.90;;;;;;5104604;28;20215;-63
2021/12/17 06:24:57;;;;;;;6.83;2.90;;;7.00;99.90;;;;;;5102951;28;20208;-62
2021/12/17 06:27:24;;;;;;;6.97;2.97;;;6.90;99.90;;;;;;5104816;28;20279;-63
2021/12/17 06:29:53;;;;;;;5.50;3.00;;;6.90;99.90;;;;;;5105379;28;20204;-63
2021/12/17 06:32:22;;;;;;;3.10;2.47;;;6.90;99.90;;;;;;5105196;28;20219;-62
2021/12/17 06:34:49;;;;;;;4.30;2.97;;;6.90;99.90;;;;;;5104976;28;20220;-63
2021/12/17 06:37:17;;;;;;;5.27;2.97;;;6.90;99.90;;;;;;5105196;28;20236;-63
2021/12/17 06:39:44;;;;;;;4.13;2.83;;;6.90;99.90;;;;;;5104322;28;20224;-63
2021/12/17 06:42:12;;;;;;;5.60;2.40;;;6.90;99.90;;;;;;5104707;28;20239;-63
2021/12/17 06:44:39;;;;;;;5.30;3.23;;;6.90;99.90;;;;;;5106747;28;20204;-62
2021/12/17 06:47:12;;;;;;;5.33;3.23;;;6.90;99.90;;;;;;5108821;28;20224;-63
2021/12/17 06:49:53;;;;;;;5.40;2.83;;;6.90;99.90;;;;;;5108740;28;20272;-63
2021/12/17 06:55:19;;;;;;;3.50;2.40;;;6.80;99.90;;;;;;5106924;28;20211;-62
2021/12/17 06:58:22;;;;;;;5.17;2.93;;;6.80;99.90;;;;;;5108210;28;20658;-62
2021/12/17 07:01:00;;;;;;;8.93;5.33;;;6.80;99.90;;;;;;5108050;28;20196;-62
2021/12/17 07:06:23;;;;;;;6.43;3.43;;;6.70;99.90;;;;;;5108483;28;20354;-63
2021/12/17 07:09:31;;;;;;;3.60;2.60;;;6.80;99.90;;;;;;5106446;28;20212;-63
2021/12/17 07:17:09;;;;;;;3.77;2.60;;;6.80;99.90;;;;;;5105874;28;20203;-63
2021/12/17 07:17:42;;;;;;;5.50;3.47;;;6.70;99.90;;;;;;5069688;28;20189;-62
2021/12/17 07:23:15;;;;;;;8.17;3.20;;;6.70;99.90;;;;;;5043729;28;20584;-62
2021/12/17 07:28:58;;;;;;;5.60;2.40;;;6.80;99.90;;;;;;5044534;28;20723;-63
2021/12/17 07:34:15;;;;;;;4.50;2.57;;;6.80;99.90;;;;;;5042616;28;20257;-63
2021/12/17 07:36:55;;;;;;;3.93;2.57;;;6.90;99.90;;;;;;5044530;28;20218;-62
2021/12/17 07:39:21;;;;;;;5.70;2.90;;;6.80;99.90;;;;;;5043302;28;20190;-63
2021/12/17 07:41:48;;;;;;;4.70;2.50;;;6.80;99.90;;;;;;5043617;28;20213;-62
2021/12/17 07:44:15;;;;;;;4.37;2.63;;;6.80;99.90;;;;;;5044014;28;20328;-62
2021/12/17 07:46:42;;;;;;;7.23;2.60;;;6.80;99.90;;;;;;5044131;28;20245;-62
2021/12/17 07:49:09;;;;;;;4.67;2.30;;;6.90;99.90;;;;;;5043585;28;20198;-63
2021/12/17 07:51:36;;;;;;;5.70;2.90;;;6.90;99.90;;;;;;5044359;28;20190;-63
2021/12/17 07:54:05;;;;;;;5.37;3.13;;;6.90;99.90;;;;;;5072451;28;20303;-63
2021/12/17 07:56:37;;;;;;;3.53;2.40;;;6.80;99.90;;;;;;5105916;28;20310;-63
2021/12/17 07:59:04;;;;;;;4.13;2.03;;;6.80;99.90;;;;;;5104125;28;20193;-63
2021/12/17 08:01:31;;;;;;;2.93;2.10;;;6.80;99.90;;;;;;5106827;28;20308;-62
2021/12/17 08:03:58;;;;;;;3.27;1.83;;;6.70;99.90;;;;;;5106524;28;20200;-62
2021/12/17 08:06:26;;;;;;;5.13;2.37;;;6.70;99.90;;;;;;5104151;28;20223;-62
2021/12/17 08:08:53;;;;;;;5.27;3.17;;;6.70;99.90;;;;;;5105803;28;20199;-62
2021/12/17 08:11:22;;;;;;;5.80;3.03;;;6.70;99.90;;;;;;5106218;28;20200;-63
2021/12/17 08:13:50;;;;;;;4.20;2.60;;;6.70;99.90;;;;;;5106385;28;20662;-63
2021/12/17 08:16:30;;;;;;;5.93;3.00;;;6.70;99.90;;;;;;5106674;28;20215;-62
2021/12/17 08:23:08;;;;;;;5.80;3.33;;;6.80;99.90;;;;;;5105234;28;20203;-63
2021/12/17 08:24:58;;;;;;;31.80;12.33;;;6.90;99.90;;;;;;5055402;28;20221;-62
2021/12/17 08:30:22;;;;;;;5.23;3.10;;;6.80;99.90;;;;;;5051690;28;20547;-63
2021/12/17 08:32:49;;;;;;;4.83;2.57;;;6.80;99.90;;;;;;5048947;28;20198;-63
2021/12/17 08:35:16;;;;;;;18.17;6.30;;;6.80;99.90;;;;;;5054373;28;20239;-63
2021/12/17 08:37:43;;;;;;;12.37;4.83;;;6.90;99.90;;;;;;5051290;28;20204;-61
2021/12/17 08:40:11;;;;;;;33.07;20.50;;;6.80;99.90;;;;;;5052869;28;20198;-63
2021/12/17 08:42:40;;;;;;;14.43;8.93;;;6.80;99.90;;;;;;5050332;28;20220;-63
2021/12/17 08:45:08;;;;;;;6.93;4.10;;;6.80;99.90;;;;;;5053466;28;20722;-63
2021/12/17 08:47:36;;;;;;;4.33;2.73;;;6.80;99.90;;;;;;5053820;28;20209;-62
2021/12/17 08:50:06;;;;;;;3.53;2.07;;;6.80;99.90;;;;;;5047535;28;20229;-63
2021/12/17 08:52:34;;;;;;;7.70;3.20;;;6.80;99.90;;;;;;5053939;28;20198;-62
2021/12/17 08:55:01;;;;;;;7.33;3.93;;;6.80;99.90;;;;;;5052459;28;20548;-62
2021/12/17 08:57:28;;;;;;;5.20;3.60;;;6.90;99.90;;;;;;5056454;28;20201;-63
2021/12/17 09:00:00;;;;;;;4.07;2.87;;;6.90;99.90;;;;;;5097738;28;20231;-62
2021/12/17 09:02:28;;;;;;;4.33;2.57;;;6.90;99.90;;;;;;5102509;28;20246;-62
2021/12/17 09:04:55;;;;;;;3.47;2.53;;;7.00;99.90;;;;;;5105620;28;20267;-63
2021/12/17 09:07:22;;;;;;;3.27;2.20;;;7.00;99.90;;;;;;5105043;28;20212;-63
2021/12/17 09:09:49;;;;;;;4.17;2.40;;;6.90;99.90;;;;;;5105057;28;20224;-63
2021/12/17 09:12:16;;;;;;;2.87;1.93;;;6.90;99.90;;;;;;5105071;28;20204;-63
2021/12/17 09:14:44;;;;;;;3.47;2.10;;;6.90;99.90;;;;;;5105478;28;20234;-62
2021/12/17 09:17:12;;;;;;;4.43;2.30;;;6.90;99.90;;;;;;5105690;28;20197;-62
2021/12/17 09:19:39;;;;;;;4.47;3.77;;;6.90;99.90;;;;;;5105184;28;20197;-63
2021/12/17 09:22:06;;;;;;;5.23;3.20;;;6.90;99.90;;;;;;5105335;28;20203;-62
2021/12/17 09:24:34;;;;;;;3.93;2.30;;;6.90;99.90;;;;;;5103731;28;20193;-63
2021/12/17 09:27:00;;;;;;;3.43;2.77;;;7.00;99.90;;;;;;5104767;28;20238;-63
2021/12/17 09:29:28;;;;;;;2.83;2.07;;;7.00;99.90;;;;;;5104790;28;20197;-63
2021/12/17 09:31:55;;;;;;;3.07;2.50;;;7.00;99.90;;;;;;5104960;28;20200;-63
2021/12/17 09:34:23;;;;;;;4.10;2.90;;;7.00;99.90;;;;;;5104316;28;20200;-62
2021/12/17 09:36:50;;;;;;;3.77;2.20;;;7.00;99.90;;;;;;5104929;28;20224;-65
2021/12/17 09:39:18;;;;;;;2.73;2.40;;;7.00;99.90;;;;;;5104250;28;20252;-63
2021/12/17 09:41:50;;;;;;;3.27;1.80;;;7.10;99.90;;;;;;5103844;28;20223;-63
2021/12/17 09:44:18;;;;;;;3.80;2.43;;;7.10;99.90;;;;;;5104435;28;20200;-63
2021/12/17 09:46:47;;;;;;;2.67;1.87;;;7.10;99.90;;;;;;5104830;28;20208;-63
2021/12/17 09:49:15;;;;;;;3.07;2.27;;;7.10;99.90;;;;;;5103961;28;20208;-62
2021/12/17 09:51:44;;;;;;;2.77;2.20;;;7.20;99.90;;;;;;5104491;28;20222;-63
2021/12/17 09:54:11;;;;;;;3.20;2.00;;;7.20;99.90;;;;;;5103164;28;20661;-62
2021/12/17 09:56:39;;;;;;;3.87;1.87;;;7.20;99.90;;;;;;5104165;28;20286;-62
2021/12/17 09:59:10;;;;;;;2.97;1.90;;;7.20;99.90;;;;;;5105013;28;20250;-63
2021/12/17 10:01:38;;;;;;;3.53;1.90;;;7.20;99.90;;;;;;5104268;28;20223;-63
2021/12/17 10:04:15;;;;;;;2.50;1.87;;;7.20;99.90;;;;;;5101723;28;20214;-62
2021/12/17 10:06:44;;;;;;;2.63;1.73;;;7.30;99.90;;;;;;5104634;28;20573;-62
2021/12/17 10:09:12;;;;;;;2.60;1.40;;;7.30;99.90;;;;;;5103032;28;20231;-63
2021/12/17 10:11:39;;;;;;;3.47;2.00;;;7.30;99.90;;;;;;5103948;28;20204;-63
2021/12/17 10:14:19;;;;;;;3.37;1.87;;;7.30;99.90;;;;;;5103776;28;20207;-63
2021/12/17 10:16:46;;;;;;;2.00;1.80;;;7.30;99.90;;;;;;5104336;28;20255;-63
2021/12/17 10:19:47;;;;;;;1.47;1.37;;;7.30;99.90;;;;;;5104049;28;20658;-64
2021/12/17 10:22:19;;;;;;;2.13;1.50;;;7.30;99.90;;;;;;5106198;28;20234;-63
2021/12/17 10:24:56;;;;;;;6.13;3.97;;;7.40;99.90;;;;;;5106971;28;20196;-63
2021/12/17 10:27:26;;;;;;;4.07;2.77;;;7.40;99.90;;;;;;5106216;28;20234;-63
2021/12/17 10:29:54;;;;;;;14.30;6.30;;;7.40;99.90;;;;;;5108510;28;20211;-63
2021/12/17 10:32:23;;;;;;;3.10;2.30;;;7.40;99.90;;;;;;5108637;28;20204;-63
2021/12/17 10:35:04;;;;;;;1.90;1.33;;;7.40;99.90;;;;;;5108309;28;20258;-62
2021/12/17 10:37:42;;;;;;;2.53;1.27;;;7.40;99.90;;;;;;5108806;28;20180;-62
2021/12/17 10:40:17;;;;;;;2.73;2.07;;;7.40;99.90;;;;;;5108361;28;20307;-63
2021/12/17 10:42:52;;;;;;;3.97;1.90;;;7.40;99.90;;;;;;5108077;28;20188;-62
2021/12/17 10:45:25;;;;;;;2.27;1.73;;;7.40;99.90;;;;;;5105486;28;20222;-63
2021/12/17 10:48:20;;;;;;;2.77;1.43;;;7.30;99.90;;;;;;5107855;28;20224;-63
2021/12/17 10:50:47;;;;;;;8.17;1.80;;;7.30;99.90;;;;;;5108521;28;20271;-63
2021/12/17 10:53:15;;;;;;;2.67;1.80;;;7.40;99.90;;;;;;5107889;28;20204;-63
2021/12/17 10:55:46;;;;;;;5.47;1.90;;;7.50;99.90;;;;;;5107202;28;20710;-64
2021/12/17 10:58:13;;;;;;;3.07;1.40;;;7.00;99.90;;;;;;5108226;28;20211;-62
2021/12/17 11:00:48;;;;;;;3.30;1.83;;;7.50;99.90;;;;;;5108487;28;20200;-62
2021/12/17 11:03:15;;;;;;;1.33;1.13;;;7.50;99.90;;;;;;5108183;28;20215;-64
2021/12/17 11:05:42;;;;;;;2.00;1.30;;;7.50;99.90;;;;;;5107973;28;20197;-63
2021/12/17 11:08:28;;;;;;;4.67;1.77;;;7.50;99.90;;;;;;5104482;28;20243;-63
2021/12/17 11:11:06;;;;;;;2.87;1.50;;;7.40;99.90;;;;;;5105617;28;20264;-63
2021/12/17 11:13:34;;;;;;;1.40;1.13;;;7.50;99.90;;;;;;5105610;28;20257;-64
2021/12/17 11:16:01;;;;;;;2.73;1.40;;;7.50;99.90;;;;;;5107670;28;20228;-64
2021/12/17 11:18:29;;;;;;;3.07;1.87;;;7.60;99.90;;;;;;5106611;28;20201;-63
2021/12/17 11:20:56;;;;;;;3.27;1.50;;;7.60;99.90;;;;;;5105280;28;20192;-63
2021/12/17 11:23:27;;;;;;;3.03;1.50;;;7.60;99.90;;;;;;5106560;28;20196;-63
2021/12/17 11:25:54;;;;;;;2.77;1.40;;;7.70;99.90;;;;;;5106822;28;20229;-65
2021/12/17 11:28:23;;;;;;;2.53;1.57;;;7.70;99.90;;;;;;5106954;28;20217;-63
2021/12/17 11:30:52;;;;;;;1.40;1.30;;;7.70;99.90;;;;;;5103850;28;20196;-63
2021/12/17 11:33:19;;;;;;;3.30;1.80;;;7.70;99.90;;;;;;5106115;28;20196;-63
2021/12/17 11:35:48;;;;;;;2.87;1.70;;;7.70;99.90;;;;;;5107032;28;20283;-64
2021/12/17 11:38:20;;;;;;;2.50;1.00;;;7.70;99.90;;;;;;5106878;28;20269;-64
2021/12/17 11:40:52;;;;;;;1.20;1.10;;;7.80;99.90;;;;;;5107019;28;20272;-63
2021/12/17 11:43:48;;;;;;;1.20;0.93;;;7.80;99.90;;;;;;5107219;28;20195;-63
2021/12/17 11:46:15;;;;;;;2.60;1.17;;;7.80;99.90;;;;;;5105354;28;20253;-63
2021/12/17 11:48:51;;;;;;;2.23;1.20;;;7.80;99.90;;;;;;5106605;28;20306;-63
2021/12/17 11:51:23;;;;;;;1.33;0.90;;;7.80;99.90;;;;;;5107093;28;20618;-63
2021/12/17 11:54:03;;;;;;;1.73;1.20;;;7.90;99.90;;;;;;5102633;28;20287;-64
2021/12/17 11:56:43;;;;;;;1.97;1.07;;;7.90;99.90;;;;;;5106799;28;20208;-65
2021/12/17 11:59:27;;;;;;;0.70;0.70;;;7.90;99.90;;;;;;5105469;28;20222;-66
2021/12/17 12:02:01;;;;;;;2.87;1.03;;;7.90;99.90;;;;;;5105889;28;20231;-65
2021/12/17 12:04:49;;;;;;;1.07;1.00;;;8.00;99.90;;;;;;5105229;28;20208;-65
2021/12/17 12:07:18;;;;;;;1.30;0.83;;;7.90;99.90;;;;;;5105883;28;20208;-63
2021/12/17 12:09:58;;;;;;;1.83;0.87;;;7.90;99.90;;;;;;5102938;28;20208;-63
2021/12/17 12:12:52;;;;;;;0.70;0.70;;;7.90;99.90;;;;;;5106173;28;20232;-65
2021/12/17 12:15:35;;;;;;;1.60;1.00;;;7.80;99.90;;;;;;5106532;28;20295;-65
2021/12/17 12:18:13;;;;;;;3.43;1.50;;;7.80;99.90;;;;;;5105989;28;20224;-63
2021/12/17 12:21:00;;;;;;;1.40;0.93;;;7.90;99.90;;;;;;5106491;28;20207;-63
2021/12/17 12:23:40;;;;;;;5.07;2.27;;;7.90;99.90;;;;;;5103857;28;20188;-64
2021/12/17 12:26:25;;;;;;;1.10;1.00;;;7.90;99.90;;;;;;5104434;28;20205;-63
2021/12/17 12:29:05;;;;;;;2.10;1.30;;;7.90;99.90;;;;;;5106413;28;20220;-64
2021/12/17 12:31:55;;;;;;;5.17;2.07;;;8.00;99.90;;;;;;5106324;28;20228;-65
2021/12/17 12:34:31;;;;;;;1.10;0.73;;;8.00;99.90;;;;;;5103840;28;20207;-63
2021/12/17 12:37:00;;;;;;;1.13;0.87;;;8.00;99.90;;;;;;5106290;28;20184;-63
2021/12/17 12:39:29;;;;;;;1.50;1.10;;;8.00;99.90;;;;;;5105173;28;20196;-64
2021/12/17 12:42:07;;;;;;;1.03;0.60;;;8.00;99.90;;;;;;5104548;28;20307;-63
2021/12/17 12:45:09;;;;;;;1.43;1.00;;;8.00;99.90;;;;;;5105850;28;20227;-65
2021/12/17 12:47:47;;;;;;;3.70;1.77;;;7.90;99.90;;;;;;5105995;28;20218;-65
2021/12/17 12:50:18;;;;;;;1.20;1.10;;;7.90;99.90;;;;;;5106088;28;20330;-65
2021/12/17 12:52:46;;;;;;;1.50;1.20;;;7.90;99.90;;;;;;5105469;28;20204;-64
2021/12/17 12:55:17;;;;;;;1.20;1.10;;;7.80;99.90;;;;;;5105073;28;20203;-64
2021/12/17 12:57:46;;;;;;;2.23;0.93;;;7.80;99.90;;;;;;5103766;28;20608;-64
2021/12/17 13:00:16;;;;;;;1.67;1.33;;;7.80;99.90;;;;;;5105946;28;20192;-64
2021/12/17 13:02:47;;;;;;;5.73;3.70;;;7.80;99.90;;;;;;5103543;28;20534;-64
2021/12/17 13:05:14;;;;;;;1.93;1.07;;;7.80;99.90;;;;;;5105736;28;20209;-65
2021/12/17 13:07:44;;;;;;;17.33;9.03;;;7.90;99.90;;;;;;5105676;28;20272;-64
2021/12/17 13:10:15;;;;;;;3.60;2.07;;;7.90;99.90;;;;;;5105531;28;20243;-64
2021/12/17 13:12:48;;;;;;;7.87;2.70;;;7.80;99.90;;;;;;5105773;28;20204;-64
2021/12/17 13:15:32;;;;;;;1.47;1.20;;;7.80;99.90;;;;;;5105593;28;20207;-65
2021/12/17 13:21:04;;;;;;;0.97;0.53;;;7.70;99.90;;;;;;5042664;28;20203;-65
2021/12/17 13:23:36;;;;;;;2.90;1.83;;;7.70;99.90;;;;;;5032852;28;20190;-65
2021/12/17 13:26:09;;;;;;;0.90;0.80;;;7.70;99.90;;;;;;5032598;28;20215;-65
2021/12/17 13:28:52;;;;;;;0.60;0.50;;;7.70;99.90;;;;;;5032115;28;20265;-66
2021/12/17 13:31:48;;;;;;;0.50;0.50;;;7.70;99.90;;;;;;5029954;28;20205;-65
2021/12/17 13:34:30;;;;;;;1.43;1.07;;;7.70;99.90;;;;;;5020679;28;20203;-65
2021/12/17 13:37:04;;;;;;;0.43;0.43;;;7.70;99.90;;;;;;5023749;28;20197;-65
2021/12/17 13:39:38;;;;;;;1.60;1.13;;;7.70;99.90;;;;;;5022532;28;20279;-65
2021/12/17 13:42:07;;;;;;;1.17;0.80;;;7.70;99.90;;;;;;5023340;28;20218;-65
2021/12/17 13:44:42;;;;;;;0.70;0.60;;;7.70;99.90;;;;;;5023342;28;20210;-65
2021/12/17 13:47:34;;;;;;;2.47;0.87;;;7.70;99.90;;;;;;5023285;28;20195;-64
2021/12/17 13:50:09;;;;;;;1.30;0.90;;;7.70;99.90;;;;;;5022849;28;20214;-65
2021/12/17 13:52:37;;;;;;;1.23;0.97;;;7.70;99.90;;;;;;5022047;28;20610;-65
2021/12/17 13:55:11;;;;;;;0.70;0.70;;;7.70;99.90;;;;;;5030403;28;20230;-65
2021/12/17 13:57:38;;;;;;;1.50;0.70;;;7.80;99.90;;;;;;5069701;28;20256;-65
2021/12/17 14:00:14;;;;;;;1.63;1.00;;;7.80;99.90;;;;;;5102284;28;20223;-65
2021/12/17 14:02:43;;;;;;;1.77;1.20;;;7.80;99.90;;;;;;5104345;28;20270;-64
2021/12/17 14:05:17;;;;;;;1.47;1.10;;;7.80;99.90;;;;;;5105222;28;20234;-65
2021/12/17 14:07:49;;;;;;;1.23;1.13;;;7.80;99.90;;;;;;5104387;28;20209;-65
2021/12/17 14:10:19;;;;;;;0.77;0.77;;;7.80;99.90;;;;;;5104113;28;20196;-65
2021/12/17 14:12:46;;;;;;;0.93;0.93;;;7.90;99.90;;;;;;5099409;28;20203;-64
2021/12/17 14:15:20;;;;;;;1.20;0.90;;;7.90;99.90;;;;;;5103333;28;20208;-64
2021/12/17 14:17:49;;;;;;;2.20;1.17;;;7.80;99.90;;;;;;5104614;28;20181;-64
2021/12/17 14:20:20;;;;;;;1.40;1.03;;;7.90;99.90;;;;;;5101719;28;20281;-64
2021/12/17 14:22:50;;;;;;;2.07;1.20;;;7.90;99.90;;;;;;5104049;28;20207;-63
2021/12/17 14:25:32;;;;;;;1.13;1.00;;;7.90;99.90;;;;;;5101058;28;20219;-64
2021/12/17 14:28:03;;;;;;;0.90;0.90;;;7.90;99.90;;;;;;5101605;28;20200;-65
2021/12/17 14:30:34;;;;;;;1.60;1.10;;;7.90;99.90;;;;;;5104549;28;20197;-64
2021/12/17 14:33:08;;;;;;;1.43;0.90;;;7.80;99.90;;;;;;5104606;28;20203;-64
2021/12/17 14:35:51;;;;;;;3.83;1.10;;;7.90;99.90;;;;;;5104476;28;20207;-64
2021/12/17 14:38:20;;;;;;;1.23;1.13;;;7.90;99.90;;;;;;5102964;28;20185;-64
2021/12/17 14:40:55;;;;;;;1.23;1.13;;;7.80;99.90;;;;;;5102207;28;20246;-64
2021/12/17 14:43:26;;;;;;;1.13;0.90;;;7.80;99.90;;;;;;5104477;28;20248;-64
2021/12/17 14:45:59;;;;;;;1.10;0.80;;;7.90;99.90;;;;;;5101927;28;20359;-65
2021/12/17 14:48:36;;;;;;;3.03;1.77;;;7.90;99.90;;;;;;5104125;28;20220;-64
2021/12/17 15:05:08;;;;;;;5.57;2.87;;;7.70;99.90;;;;;;5088213;28;20188;-64
2021/12/17 15:07:37;;;;;;;4.40;2.30;;;7.70;99.90;;;;;;5107942;28;20200;-64
2021/12/17 15:10:07;;;;;;;3.73;1.70;;;7.70;99.90;;;;;;5107202;28;20287;-65
2021/12/17 15:12:40;;;;;;;3.13;2.03;;;7.70;99.90;;;;;;5105104;28;20203;-64
2021/12/17 15:15:15;;;;;;;4.00;2.23;;;7.70;99.90;;;;;;5107829;28;20614;-65
2021/12/17 15:17:43;;;;;;;3.30;1.50;;;7.80;99.90;;;;;;5107787;28;20203;-64
2021/12/17 15:20:12;;;;;;;1.67;1.27;;;7.70;99.90;;;;;;5107318;28;20196;-64
2021/12/17 15:22:41;;;;;;;3.10;1.73;;;7.70;99.90;;;;;;5107994;28;20238;-64
2021/12/17 15:25:11;;;;;;;2.10;1.50;;;7.60;99.90;;;;;;5106856;28;20206;-64
2021/12/17 15:27:39;;;;;;;2.87;1.30;;;7.70;99.90;;;;;;5107220;28;20242;-66
2021/12/17 15:30:09;;;;;;;5.63;1.70;;;7.70;99.90;;;;;;5107429;28;20220;-65
2021/12/17 15:32:36;;;;;;;2.60;1.80;;;7.60;99.90;;;;;;5105721;28;20188;-65
2021/12/17 15:35:04;;;;;;;2.50;1.80;;;7.60;99.90;;;;;;5107347;28;20231;-64